createdAt,value
2019-01-05T00:02:17.830Z,40.13
2019-01-05T00:04:47.785Z,35.57
2019-01-05T00:07:34.947Z,34.83
2019-01-05T00:10:05.349Z,30.00
2019-01-05T00:12:32.838Z,31.63
2019-01-05T00:15:17.974Z,33.47
2019-01-05T00:17:49.397Z,30.60
2019-01-05T00:20:16.871Z,31.13
2019-01-05T00:23:01.112Z,36.88
2019-01-05T00:25:45.358Z,33.63
2019-01-05T00:28:28.633Z,31.07
2019-01-05T00:31:07.827Z,40.60
2019-01-05T00:33:50.160Z,32.93
2019-01-05T00:36:23.238Z,37.50
2019-01-05T00:38:53.189Z,35.50
2019-01-05T00:41:36.301Z,33.03
2019-01-05T00:44:09.308Z,30.93
2019-01-05T00:46:53.544Z,34.70
2019-01-05T00:49:23.369Z,31.52
2019-01-05T00:51:52.672Z,35.03
2019-01-05T00:54:20.973Z,35.77
2019-01-05T00:56:48.451Z,39.83
2019-01-05T00:59:32.586Z,30.90
2019-01-05T01:02:16.885Z,37.40
2019-01-05T01:04:47.922Z,26.73
2019-01-05T01:07:20.995Z,29.30
2019-01-05T01:10:03.372Z,24.93
2019-01-05T01:12:32.747Z,25.50
2019-01-05T01:15:06.047Z,32.80
2019-01-05T01:17:34.745Z,28.17
2019-01-05T01:20:07.599Z,28.33
2019-01-05T01:22:50.166Z,26.40
2019-01-05T01:25:23.184Z,27.73
2019-01-05T01:27:56.437Z,23.03
2019-01-05T01:30:29.560Z,21.35
2019-01-05T01:33:02.612Z,18.62
2019-01-05T01:35:40.132Z,20.53
2019-01-05T01:38:30.469Z,25.37
2019-01-05T01:41:08.770Z,20.30
2019-01-05T01:43:41.882Z,20.07
2019-01-05T01:46:13.905Z,24.03
2019-01-05T01:48:57.124Z,24.03
2019-01-05T01:51:25.249Z,15.47
2019-01-05T01:53:58.228Z,17.52
2019-01-05T01:56:37.506Z,19.47
2019-01-05T01:59:06.858Z,18.70
2019-01-05T02:01:39.809Z,16.77
2019-01-05T02:04:23.052Z,14.70
2019-01-05T02:07:06.275Z,19.67
2019-01-05T02:09:50.410Z,18.30
2019-01-05T02:12:35.516Z,17.97
2019-01-05T02:15:09.363Z,17.07
2019-01-05T02:17:37.810Z,19.40
2019-01-05T02:20:13.549Z,14.85
2019-01-05T02:22:45.290Z,16.23
2019-01-05T02:25:20.543Z,19.52
2019-01-05T02:28:19.203Z,17.43
2019-01-05T02:30:53.155Z,17.45
2019-01-05T02:33:42.773Z,14.70
2019-01-05T02:36:16.997Z,17.60
2019-01-05T02:39:00.952Z,19.08
2019-01-05T02:41:38.123Z,13.70
2019-01-05T02:47:28.175Z,21.92
2019-01-05T02:50:22.760Z,17.87
2019-01-05T02:53:12.374Z,17.70
2019-01-05T02:55:51.355Z,19.03
2019-01-05T02:58:50.003Z,16.97
2019-01-05T03:01:51.018Z,16.05
2019-01-05T03:04:27.381Z,18.05
2019-01-05T03:07:18.847Z,16.00
2019-01-05T03:10:10.610Z,18.33
2019-01-05T03:12:46.566Z,14.83
2019-01-05T03:15:33.540Z,15.70
2019-01-05T03:18:23.909Z,17.30
2019-01-05T03:21:10.177Z,19.57
2019-01-05T03:23:51.689Z,16.87
2019-01-05T03:26:47.735Z,16.37
2019-01-05T03:29:23.114Z,16.50
2019-01-05T03:32:21.212Z,19.73
2019-01-05T03:35:29.967Z,17.50
2019-01-05T03:38:05.212Z,15.40
2019-01-05T03:40:55.206Z,17.23
2019-01-05T03:43:43.808Z,22.33
2019-01-05T03:46:51.535Z,19.47
2019-01-05T03:49:49.222Z,20.20
2019-01-05T03:52:24.480Z,19.43
2019-01-05T03:55:02.555Z,18.42
2019-01-05T03:57:35.673Z,25.88
2019-01-05T04:00:19.754Z,18.07
2019-01-05T04:02:59.849Z,20.23
2019-01-05T04:05:29.167Z,18.43
2019-01-05T04:08:23.294Z,23.30
2019-01-05T04:10:56.520Z,13.43
2019-01-05T04:14:00.245Z,18.42
2019-01-05T04:16:49.691Z,17.50
2019-01-05T04:19:37.742Z,20.98
2019-01-05T04:25:18.530Z,24.58
2019-01-05T04:28:16.452Z,20.37
2019-01-05T04:34:12.911Z,24.48
2019-01-05T04:37:06.487Z,19.67
2019-01-05T04:39:40.590Z,18.40
2019-01-05T04:42:12.126Z,17.43
2019-01-05T04:45:04.320Z,15.87
2019-01-05T04:47:40.998Z,16.03
2019-01-05T04:50:31.996Z,12.17
2019-01-05T04:53:39.515Z,16.73
2019-01-05T04:56:17.422Z,21.20
2019-01-05T04:59:06.054Z,14.35
2019-01-05T05:01:53.041Z,19.63
2019-01-05T05:04:40.717Z,24.30
2019-01-05T05:07:35.405Z,17.47
2019-01-05T05:10:34.339Z,20.98
2019-01-05T05:13:26.775Z,15.57
2019-01-05T05:16:06.998Z,13.97
2019-01-05T05:18:54.000Z,17.50
2019-01-05T05:21:47.152Z,17.47
2019-01-05T05:24:34.468Z,19.13
2019-01-05T05:27:21.451Z,16.90
2019-01-05T05:30:13.425Z,17.60
2019-01-05T05:33:04.001Z,17.08
2019-01-05T05:35:52.008Z,18.77
2019-01-05T05:38:43.954Z,18.85
2019-01-05T05:41:30.103Z,16.80
2019-01-05T05:44:08.079Z,18.00
2019-01-05T05:47:18.783Z,21.43
2019-01-05T05:49:54.847Z,17.60
2019-01-05T05:53:02.639Z,14.83
2019-01-05T05:55:52.569Z,19.97
2019-01-05T05:58:42.191Z,12.37
2019-01-05T06:01:35.275Z,15.60
